Time;durP1;ratioP1;P1;durP2;ratioP2;P2;SDS_P1;SDS_P2;PMS_P1;PMS_P2;Temp;Humidity;BMP_temperature;BMP_pressure;BME280_temperature;BME280_humidity;BME280_pressure;Samples;Min_cycle;Max_cycle;Signal;HPM_P1;HPM_P2
2022/06/01 00:00:52;;;;;;;33.45;21.65;;;;;;;9.38;98.33;101350.75;4977692;28;20047;-80
2022/06/01 00:03:17;;;;;;;38.13;22.38;;;;;;;9.29;98.48;101331.00;4969836;28;20109;-80
2022/06/01 00:05:43;;;;;;;39.72;22.73;;;;;;;9.33;98.75;101348.25;4971195;28;20493;-80
2022/06/01 00:08:08;;;;;;;34.75;21.15;;;;;;;9.38;99.25;101346.44;4970360;28;20117;-80
2022/06/01 00:10:34;;;;;;;35.60;22.17;;;;;;;9.35;99.02;101354.22;4977984;28;20051;-79
2022/06/01 00:13:00;;;;;;;38.00;22.50;;;;;;;9.34;99.12;101344.78;4972626;28;20031;-79
2022/06/01 00:15:26;;;;;;;36.95;22.23;;;;;;;9.32;98.74;101350.84;4969914;28;20069;-80
2022/06/01 00:17:52;;;;;;;38.95;23.23;;;;;;;9.31;99.17;101349.13;4971495;28;20045;-80
2022/06/01 00:20:18;;;;;;;38.90;24.05;;;;;;;9.29;98.98;101350.84;4969073;28;20450;-80
2022/06/01 00:22:44;;;;;;;40.65;23.45;;;;;;;9.28;99.58;101357.75;4967467;28;20031;-80
2022/06/01 00:25:10;;;;;;;38.80;23.75;;;;;;;9.27;99.58;101353.47;4968957;28;20088;-80
2022/06/01 00:27:36;;;;;;;44.38;25.25;;;;;;;9.31;99.94;101349.97;4973367;28;20038;-79
2022/06/01 00:30:04;;;;;;;40.63;23.88;;;;;;;9.32;100.00;101350.84;4970765;28;20036;-80
2022/06/01 00:32:30;;;;;;;41.67;24.65;;;;;;;9.34;99.63;101354.28;4971585;28;20118;-80
2022/06/01 00:34:55;;;;;;;42.63;24.67;;;;;;;9.35;100.00;101356.81;4972856;28;20117;-80
2022/06/01 00:37:21;;;;;;;47.42;26.20;;;;;;;9.36;100.00;101352.50;4965739;28;20062;-80
2022/06/01 00:39:47;;;;;;;44.28;25.15;;;;;;;9.38;100.00;101354.22;4973665;28;20045;-80
2022/06/01 00:42:13;;;;;;;42.55;24.73;;;;;;;9.38;100.00;101359.38;4969361;28;20068;-80
2022/06/01 00:44:39;;;;;;;44.97;25.58;;;;;;;9.37;100.00;101354.22;4965062;28;20034;-80
2022/06/01 00:47:04;;;;;;;45.60;26.20;;;;;;;9.39;100.00;101355.06;4972132;28;20029;-80
2022/06/01 00:49:32;;;;;;;45.72;25.45;;;;;;;9.41;100.00;101355.91;4985866;28;20041;-80
2022/06/01 00:51:57;;;;;;;43.72;25.40;;;;;;;9.40;100.00;101344.72;4972118;28;20026;-80
2022/06/01 00:54:24;;;;;;;42.30;24.73;;;;;;;9.39;99.97;101345.56;4967657;28;20105;-80
2022/06/01 00:56:57;;;;;;;38.30;23.15;;;;;;;9.35;100.00;101343.88;4970078;28;20046;-80
2022/06/01 00:59:26;;;;;;;41.10;24.20;;;;;;;9.35;100.00;101345.59;4970938;28;20531;-80
2022/06/01 01:01:55;;;;;;;43.20;24.67;;;;;;;9.31;99.80;101343.94;4973896;28;20363;-80
2022/06/01 01:04:22;;;;;;;42.90;24.58;;;;;;;9.31;99.76;101359.47;4962029;28;20027;-80
2022/06/01 01:06:48;;;;;;;45.53;25.45;;;;;;;9.25;99.42;101355.22;4960921;28;20047;-80
2022/06/01 01:09:14;;;;;;;42.63;23.60;;;;;;;9.22;99.08;101350.06;4968799;28;20030;-80
2022/06/01 01:11:51;;;;;;;41.75;23.98;;;;;;;9.18;99.46;101348.38;4976831;28;20509;-80
2022/06/01 01:14:20;;;;;;;43.10;24.83;;;;;;;9.15;99.21;101340.63;4983775;28;20074;-80
2022/06/01 01:16:49;;;;;;;43.97;24.35;;;;;;;9.12;99.43;101343.28;4968640;28;20074;-80
2022/06/01 01:19:35;;;;;;;43.15;24.55;;;;;;;9.10;99.47;101343.28;4969218;28;20031;-80
2022/06/01 01:22:25;;;;;;;43.03;24.80;;;;;;;9.09;99.51;101345.88;4966147;28;20031;-80
2022/06/01 01:25:28;;;;;;;42.20;23.77;;;;;;;9.07;99.45;101345.06;4964046;28;20477;-80
2022/06/01 01:27:57;;;;;;;44.28;24.50;;;;;;;9.04;99.32;101339.91;4973781;28;20037;-80
2022/06/01 01:30:35;;;;;;;43.30;23.80;;;;;;;9.03;99.67;101351.09;4972974;28;20096;-80
2022/06/01 01:33:11;;;;;;;41.70;23.75;;;;;;;9.04;99.79;101347.66;4963300;28;20467;-80
2022/06/01 01:35:37;;;;;;;42.67;24.08;;;;;;;9.09;100.00;101343.28;4966128;28;20130;-80
2022/06/01 01:38:06;;;;;;;42.33;24.70;;;;;;;9.13;100.00;101342.41;4970036;28;20022;-80
2022/06/01 01:40:32;;;;;;;44.03;24.83;;;;;;;9.19;100.00;101338.91;4969934;28;20035;-80
2022/06/01 01:42:59;;;;;;;46.95;26.10;;;;;;;9.24;100.00;101343.16;4970633;28;20552;-80
2022/06/01 01:45:28;;;;;;;43.15;24.38;;;;;;;9.23;100.00;101336.25;4969744;28;20116;-80
2022/06/01 01:47:54;;;;;;;45.80;26.08;;;;;;;9.26;100.00;101333.66;4972859;28;20026;-80
2022/06/01 01:50:20;;;;;;;46.00;25.85;;;;;;;9.30;100.00;101340.50;4969441;28;20293;-80
2022/06/01 01:52:47;;;;;;;49.85;27.30;;;;;;;9.34;100.00;101339.59;4969392;28;20046;-80
2022/06/01 01:55:53;;;;;;;48.72;26.75;;;;;;;9.39;100.00;101345.56;4982460;28;20027;-80
2022/06/01 01:58:57;;;;;;;47.28;26.17;;;;;;;9.42;100.00;101342.94;4968088;28;20053;-80
2022/06/01 02:01:31;;;;;;;47.38;26.55;;;;;;;9.47;100.00;101343.78;4970805;28;20043;-80
2022/06/01 02:06:03;;;;;;;53.22;28.13;;;;;;;9.53;100.00;101342.84;4968185;28;20042;-80
2022/06/01 02:06:54;;;;;;;52.08;27.45;;;;;;;9.57;100.00;101336.75;4969614;28;20074;-80
2022/06/01 02:09:20;;;;;;;47.85;26.95;;;;;;;9.63;100.00;101348.75;4970837;28;20035;-80
2022/06/01 02:14:38;;;;;;;51.03;28.15;;;;;;;9.68;100.00;101340.09;4957373;28;20041;-80
2022/06/01 02:17:08;;;;;;;53.00;28.63;;;;;;;9.72;100.00;101349.50;4974810;28;20066;-80
2022/06/01 02:19:39;;;;;;;49.97;28.20;;;;;;;9.72;100.00;101349.50;4972507;28;20031;-80
2022/06/01 02:22:06;;;;;;;51.58;28.55;;;;;;;9.75;100.00;101340.88;4981089;28;20035;-80
2022/06/01 02:24:32;;;;;;;52.28;27.48;;;;;;;9.76;100.00;101351.16;4979945;28;20595;-80
2022/06/01 02:26:59;;;;;;;54.15;29.58;;;;;;;9.79;100.00;101352.88;4979588;28;20038;-80
2022/06/01 02:29:57;;;;;;;52.25;27.88;;;;;;;9.81;100.00;101346.81;4971900;28;20054;-80
2022/06/01 02:32:26;;;;;;;54.53;28.92;;;;;;;9.81;100.00;101345.97;4977300;28;20497;-80
2022/06/01 02:34:54;;;;;;;54.90;28.67;;;;;;;9.82;100.00;101345.09;4970868;28;20042;-80
2022/06/01 02:37:22;;;;;;;53.28;27.88;;;;;;;9.84;100.00;101340.72;4980599;28;20022;-80
2022/06/01 02:39:52;;;;;;;56.30;29.35;;;;;;;9.83;100.00;101345.03;4973277;28;20090;-80
2022/06/01 02:42:30;;;;;;;50.92;27.77;;;;;;;9.85;100.00;101345.03;4971593;28;20031;-80
2022/06/01 02:45:06;;;;;;;55.10;29.58;;;;;;;9.88;100.00;101345.00;4971018;28;20073;-80
2022/06/01 02:47:37;;;;;;;57.42;29.17;;;;;;;9.88;100.00;101335.50;4966489;28;20034;-80
2022/06/01 02:50:08;;;;;;;56.13;29.15;;;;;;;9.84;100.00;101340.72;4976242;28;20030;-80
2022/06/01 02:52:35;;;;;;;59.25;29.75;;;;;;;9.85;100.00;101338.13;4980179;28;20045;-80
2022/06/01 02:55:05;;;;;;;54.47;28.65;;;;;;;9.88;100.00;101348.47;4974137;28;20068;-80
2022/06/01 02:57:31;;;;;;;51.67;27.92;;;;;;;9.84;100.00;101340.72;4969756;28;20058;-80
2022/06/01 02:59:56;;;;;;;49.55;27.63;;;;;;;9.78;100.00;101335.63;4973792;28;20070;-80
2022/06/01 03:02:23;;;;;;;51.22;27.88;;;;;;;9.72;100.00;101344.34;4971355;28;20146;-80
2022/06/01 03:04:48;;;;;;;51.67;27.20;;;;;;;9.67;100.00;101338.38;4970784;28;20114;-80
2022/06/01 03:07:14;;;;;;;49.95;27.95;;;;;;;9.61;100.00;101333.25;4976790;28;20114;-80
2022/06/01 03:09:39;;;;;;;57.13;28.42;;;;;;;9.59;100.00;101339.31;4972486;28;20037;-80
2022/06/01 03:12:06;;;;;;;51.03;27.88;;;;;;;9.56;100.00;101344.50;4977840;28;20026;-80
2022/06/01 03:14:34;;;;;;;49.65;26.35;;;;;;;9.49;100.00;101338.56;4976784;28;20088;-80
2022/06/01 03:17:00;;;;;;;47.30;25.88;;;;;;;9.44;100.00;101330.84;4976677;28;20072;-80
2022/06/01 03:19:25;;;;;;;49.53;27.02;;;;;;;9.41;100.00;101336.09;4972295;28;20027;-80
2022/06/01 03:21:51;;;;;;;52.60;27.30;;;;;;;9.37;100.00;101342.16;4977427;28;20046;-80
2022/06/01 03:24:17;;;;;;;49.55;25.77;;;;;;;9.33;99.87;101339.63;4969805;28;20018;-80
2022/06/01 03:26:43;;;;;;;49.20;25.83;;;;;;;9.30;100.00;101339.63;4977487;28;20393;-80
2022/06/01 03:29:08;;;;;;;50.58;26.67;;;;;;;9.30;100.00;101339.63;4974099;28;20037;-80
2022/06/01 03:31:34;;;;;;;49.78;26.42;;;;;;;9.26;100.00;101338.81;4976996;28;20173;-80
2022/06/01 03:33:59;;;;;;;53.33;26.75;;;;;;;9.23;100.00;101338.84;4973229;28;20042;-80
2022/06/01 03:36:25;;;;;;;52.00;26.40;;;;;;;9.19;100.00;101344.06;4975416;28;20033;-80
2022/06/01 03:38:50;;;;;;;51.13;26.95;;;;;;;9.12;99.52;101343.28;4966038;28;20061;-80
2022/06/01 03:41:16;;;;;;;51.22;26.60;;;;;;;9.13;99.91;101338.97;4968494;28;20105;-80
2022/06/01 03:46:25;;;;;;;51.80;27.30;;;;;;;9.13;100.00;101346.72;4974937;28;20045;-80
2022/06/01 03:48:50;;;;;;;49.28;25.90;;;;;;;9.09;100.00;101338.13;4975016;28;20221;-80
2022/06/01 03:51:16;;;;;;;54.20;27.55;;;;;;;9.07;100.00;101342.47;4974964;28;20500;-80
2022/06/01 03:53:41;;;;;;;48.63;25.73;;;;;;;9.10;100.00;101352.78;4969623;28;21479;-80
2022/06/01 03:56:08;;;;;;;54.08;27.08;;;;;;;9.08;100.00;101349.31;4979962;28;20439;-80
2022/06/01 03:58:34;;;;;;;53.72;27.83;;;;;;;9.04;99.96;101353.69;4965968;28;20041;-80
2022/06/01 04:00:59;;;;;;;57.80;27.83;;;;;;;9.11;100.00;101350.19;4977882;28;20505;-80
2022/06/01 04:03:25;;;;;;;52.92;27.23;;;;;;;9.13;100.00;101354.47;4968472;28;20085;-80
2022/06/01 04:05:50;;;;;;;54.60;26.88;;;;;;;9.10;99.70;101361.38;4967809;28;20118;-80
2022/06/01 04:08:15;;;;;;;52.30;27.02;;;;;;;9.13;99.67;101362.25;4964169;28;20110;-80
2022/06/01 04:10:45;;;;;;;47.45;25.50;;;;;;;9.11;99.94;101359.66;4975242;28;20117;-80
2022/06/01 04:13:12;;;;;;;53.03;26.10;;;;;;;9.17;99.53;101357.00;4969058;28;20030;-80
2022/06/01 04:15:38;;;;;;;47.47;25.25;;;;;;;9.18;99.55;101358.72;4970260;28;20034;-80
2022/06/01 04:18:03;;;;;;;48.05;25.45;;;;;;;9.22;100.00;101360.41;4968780;28;20063;-80
2022/06/01 04:20:29;;;;;;;48.67;25.52;;;;;;;9.26;99.40;101361.25;4963017;28;20027;-80
2022/06/01 04:22:55;;;;;;;53.05;25.77;;;;;;;9.24;99.08;101363.84;4961507;28;20058;-80
2022/06/01 04:25:21;;;;;;;48.60;25.05;;;;;;;9.25;98.29;101362.13;4965085;28;20105;-80
2022/06/01 04:27:47;;;;;;;48.47;25.83;;;;;;;9.30;99.72;101362.91;4957763;28;20034;-80
2022/06/01 04:30:15;;;;;;;48.60;24.63;;;;;;;9.32;99.61;101361.19;4968180;28;20027;-80
2022/06/01 04:32:42;;;;;;;50.10;25.85;;;;;;;9.39;100.00;101362.84;4972775;28;20500;-80
2022/06/01 04:35:08;;;;;;;46.60;24.75;;;;;;;9.43;99.75;101354.16;4979753;28;20481;-80
2022/06/01 04:37:34;;;;;;;49.60;25.52;;;;;;;9.46;100.00;101355.00;4973202;28;20113;-80
2022/06/01 04:39:59;;;;;;;44.45;23.95;;;;;;;9.50;100.00;101356.66;4969407;28;20022;-80
2022/06/01 04:42:24;;;;;;;45.67;24.65;;;;;;;9.49;98.68;101354.09;4967190;28;20152;-80
2022/06/01 04:44:50;;;;;;;43.72;24.23;;;;;;;9.53;99.79;101358.38;4973650;28;20507;-80
2022/06/01 04:47:16;;;;;;;42.42;22.92;;;;;;;9.51;99.64;101358.38;4971894;28;20055;-80
2022/06/01 04:49:41;;;;;;;43.20;23.92;;;;;;;9.48;98.92;101354.97;4979343;28;20034;-80
2022/06/01 04:52:07;;;;;;;47.78;24.10;;;;;;;9.50;99.21;101355.81;4969375;28;20108;-80
2022/06/01 04:54:33;;;;;;;45.92;23.27;;;;;;;9.50;98.83;101359.25;4963017;28;20422;-80
2022/06/01 04:56:58;;;;;;;46.20;23.17;;;;;;;9.52;98.96;101360.09;4963780;28;20505;-80
2022/06/01 04:59:24;;;;;;;42.53;23.38;;;;;;;9.52;98.62;101362.69;4971682;28;20054;-80
2022/06/01 05:01:49;;;;;;;45.90;23.77;;;;;;;9.54;98.32;101369.56;4974977;28;20027;-80
2022/06/01 05:04:15;;;;;;;44.22;23.38;;;;;;;9.55;99.00;101366.13;4976776;28;20624;-80
2022/06/01 05:06:40;;;;;;;44.72;23.20;;;;;;;9.55;99.01;101364.41;4969410;28;20535;-80
2022/06/01 05:09:06;;;;;;;46.05;23.75;;;;;;;9.58;98.48;101368.66;4967032;28;20034;-80
2022/06/01 05:11:31;;;;;;;43.67;23.48;;;;;;;9.60;99.99;101365.19;4969982;28;20038;-80
2022/06/01 05:13:57;;;;;;;45.58;23.25;;;;;;;9.64;100.00;101356.50;4967837;28;20212;-80
2022/06/01 05:16:22;;;;;;;46.90;23.48;;;;;;;9.65;99.38;101365.13;4969721;28;20037;-80
2022/06/01 05:18:47;;;;;;;46.40;23.55;;;;;;;9.67;98.51;101365.97;4964855;28;20072;-80
2022/06/01 05:21:13;;;;;;;43.03;22.58;;;;;;;9.69;98.35;101362.47;4966417;28;20177;-80
2022/06/01 05:23:38;;;;;;;49.28;23.73;;;;;;;9.72;98.98;101361.59;4952804;28;20516;-79
2022/06/01 05:26:04;;;;;;;46.92;23.02;;;;;;;9.71;97.93;101367.63;4966074;28;20023;-79
2022/06/01 05:28:32;;;;;;;42.33;23.20;;;;;;;9.72;97.84;101369.34;4960905;28;20078;-80
2022/06/01 05:31:00;;;;;;;44.25;22.40;;;;;;;9.77;98.29;101365.84;4964980;28;20062;-80
2022/06/01 05:33:26;;;;;;;46.15;23.27;;;;;;;9.80;98.71;101363.22;4967572;28;20062;-80
2022/06/01 05:35:51;;;;;;;42.50;21.67;;;;;;;9.84;98.14;101359.72;4968744;28;20065;-80
2022/06/01 05:38:17;;;;;;;46.40;24.02;;;;;;;9.88;99.07;101363.13;4964228;28;20062;-79
2022/06/01 05:40:42;;;;;;;45.45;23.38;;;;;;;9.94;98.74;101367.38;4966082;28;20057;-79
2022/06/01 05:43:13;;;;;;;46.38;23.40;;;;;;;10.00;98.93;101370.75;4979312;28;20062;-80
2022/06/01 05:45:40;;;;;;;46.10;23.25;;;;;;;10.02;98.37;101375.91;4972203;28;20116;-79
2022/06/01 05:48:07;;;;;;;46.78;24.20;;;;;;;10.08;98.79;101376.69;4972889;28;20069;-79
2022/06/01 05:50:32;;;;;;;45.63;24.10;;;;;;;10.15;99.07;101375.72;4966727;28;20086;-79
2022/06/01 05:52:57;;;;;;;45.20;24.42;;;;;;;10.26;99.23;101375.59;4972875;28;20023;-79
2022/06/01 05:55:23;;;;;;;45.03;23.50;;;;;;;10.33;99.37;101377.22;4970267;28;20512;-79
2022/06/01 05:57:48;;;;;;;40.20;22.45;;;;;;;10.40;98.76;101380.59;4974362;28;20760;-79
2022/06/01 06:00:16;;;;;;;39.22;21.27;;;;;;;10.46;98.47;101389.13;4967558;28;20098;-79
2022/06/01 06:02:42;;;;;;;41.80;21.23;;;;;;;10.51;98.10;101383.88;4966456;28;20161;-79
2022/06/01 06:07:54;;;;;;;38.92;19.95;;;;;;;10.57;97.54;101389.00;4949730;28;20042;-80
2022/06/01 06:10:20;;;;;;;40.28;22.17;;;;;;;10.66;99.72;101383.66;4948830;28;20552;-80
2022/06/01 06:12:45;;;;;;;41.88;21.23;;;;;;;10.72;100.00;101386.13;4953186;28;20047;-80
2022/06/01 06:15:11;;;;;;;39.08;20.23;;;;;;;10.75;99.52;101382.66;4953562;28;20041;-80
2022/06/01 06:17:37;;;;;;;41.10;21.35;;;;;;;10.87;99.75;101387.63;4956358;28;20695;-80
2022/06/01 06:20:03;;;;;;;41.65;20.58;;;;;;;11.00;100.00;101387.41;4956762;28;20398;-80
2022/06/01 06:22:28;;;;;;;42.75;21.67;;;;;;;11.29;100.00;101392.09;4960602;28;20039;-80
2022/06/01 06:24:54;;;;;;;39.47;19.65;;;;;;;11.60;97.86;101399.34;4955599;28;20053;-80
2022/06/01 06:27:24;;;;;;;40.38;19.30;;;;;;;11.64;96.88;101393.19;4968730;28;20022;-80
2022/06/01 06:29:49;;;;;;;36.85;18.63;;;;;;;11.64;96.98;101398.38;4974750;28;20035;-81
2022/06/01 06:32:14;;;;;;;35.13;17.88;;;;;;;11.65;95.97;101406.16;4960312;28;20398;-80
2022/06/01 06:34:40;;;;;;;34.42;18.05;;;;;;;11.67;95.89;101401.75;4965369;28;20402;-80
2022/06/01 06:37:05;;;;;;;33.55;17.40;;;;;;;11.71;95.40;101405.19;4969286;28;20380;-80
2022/06/01 06:39:31;;;;;;;32.80;17.05;;;;;;;11.76;95.62;101405.97;4961999;28;20049;-80
2022/06/01 06:41:56;;;;;;;30.83;16.83;;;;;;;11.78;96.29;101405.06;4966964;28;20036;-80
2022/06/01 06:44:21;;;;;;;33.60;18.40;;;;;;;11.90;96.82;101403.97;4966199;28;20101;-80
2022/06/01 06:46:47;;;;;;;35.65;17.33;;;;;;;12.00;97.74;101415.03;4970275;28;20030;-80
2022/06/01 06:49:12;;;;;;;30.30;16.80;;;;;;;12.10;96.85;101411.34;4972596;28;20093;-80
2022/06/01 06:51:38;;;;;;;30.60;15.90;;;;;;;12.18;96.54;101418.09;4972176;28;20026;-80
2022/06/01 06:54:03;;;;;;;27.42;15.75;;;;;;;12.29;96.99;101420.44;4971078;28;20046;-80
2022/06/01 06:56:29;;;;;;;34.45;16.45;;;;;;;12.40;95.62;101417.63;4970439;28;20487;-81
2022/06/01 06:58:54;;;;;;;28.42;16.55;;;;;;;12.59;96.95;101425.00;4972526;28;20493;-80
2022/06/01 07:01:20;;;;;;;28.15;14.23;;;;;;;12.70;94.41;101423.88;4967097;28;20042;-80
2022/06/01 07:03:45;;;;;;;26.90;14.57;;;;;;;12.84;96.01;101425.25;4969386;28;20082;-80
2022/06/01 07:06:12;;;;;;;26.15;13.27;;;;;;;12.96;94.83;101426.75;4966483;28;20042;-80
2022/06/01 07:08:43;;;;;;;26.75;13.68;;;;;;;13.07;95.21;101432.53;4970768;28;20038;-80
2022/06/01 07:11:09;;;;;;;22.67;13.13;;;;;;;13.21;93.45;101429.63;4972323;28;20031;-80
2022/06/01 07:13:35;;;;;;;20.05;11.98;;;;;;;13.36;90.25;101435.31;4969481;28;20026;-80
2022/06/01 07:16:07;;;;;;;22.15;12.48;;;;;;;13.50;91.12;101427.13;4960008;28;20029;-81
2022/06/01 07:18:35;;;;;;;22.23;12.77;;;;;;;13.65;90.10;101428.44;4965956;28;20022;-80
2022/06/01 07:21:00;;;;;;;20.05;11.18;;;;;;;13.77;86.66;101435.94;4976440;28;20398;-80
2022/06/01 07:23:26;;;;;;;23.45;11.15;;;;;;;13.92;88.31;101435.50;4970356;28;20538;-80
2022/06/01 07:25:52;;;;;;;20.33;11.40;;;;;;;14.07;88.80;101434.22;4967368;28;20077;-80
2022/06/01 07:28:21;;;;;;;18.25;9.95;;;;;;;14.26;84.00;101445.84;4971542;28;20058;-80
2022/06/01 07:30:47;;;;;;;18.20;10.25;;;;;;;14.46;85.20;101445.28;4970743;28;20413;-80
2022/06/01 07:33:12;;;;;;;18.60;10.32;;;;;;;14.62;85.31;101434.31;4969290;28;20486;-80
2022/06/01 07:35:37;;;;;;;18.08;10.57;;;;;;;14.98;83.63;101426.25;4957838;28;20035;-80
2022/06/01 07:43:30;;;;;;;13.00;9.02;;;;;;;17.20;74.38;101431.91;4971019;28;20063;-80
2022/06/01 07:45:56;;;;;;;15.63;8.55;;;;;;;17.18;70.44;101428.53;4971928;28;20422;-80
2022/06/01 07:48:21;;;;;;;14.55;8.75;;;;;;;17.48;75.86;101421.13;4976593;28;20053;-81
2022/06/01 07:50:50;;;;;;;13.43;8.60;;;;;;;18.28;71.65;101431.59;4971588;28;20042;-81
2022/06/01 07:53:16;;;;;;;13.35;8.77;;;;;;;18.99;67.71;101432.56;4971297;28;20030;-81
2022/06/01 07:55:42;;;;;;;15.68;9.32;;;;;;;19.20;69.87;101429.72;4973535;28;20028;-80
2022/06/01 07:58:09;;;;;;;14.25;10.30;;;;;;;20.06;68.27;101428.81;4974532;28;20018;-81
2022/06/01 08:00:34;;;;;;;12.48;8.65;;;;;;;21.06;62.68;101432.88;4986629;28;20046;-81
2022/06/01 08:03:00;;;;;;;12.57;8.68;;;;;;;21.10;59.20;101437.88;4974016;28;20393;-81
2022/06/01 08:05:26;;;;;;;13.32;9.00;;;;;;;20.57;61.96;101430.38;4971479;28;20146;-81
2022/06/01 08:07:51;;;;;;;12.88;8.80;;;;;;;20.31;60.33;101426.53;4971000;28;20089;-81
2022/06/01 08:10:18;;;;;;;13.90;9.07;;;;;;;19.65;60.58;101441.50;4969955;28;20052;-81
2022/06/01 08:15:29;;;;;;;;;;;;;;;18.69;65.97;101440.19;4971794;28;20093;-81
2022/06/01 08:17:55;;;;;;;12.60;10.10;;;;;;;18.23;69.13;101438.81;4971239;28;19918;-81
2022/06/01 08:20:22;;;;;;;11.27;8.90;;;;;;;18.22;65.03;101437.94;4971258;28;20149;-81
2022/06/01 08:22:47;;;;;;;13.35;9.43;;;;;;;18.28;65.12;101440.31;4983110;28;20075;-81
2022/06/01 08:25:16;;;;;;;11.88;9.18;;;;;;;18.31;69.30;101444.56;4971070;28;20390;-81
2022/06/01 08:27:42;;;;;;;15.23;9.95;;;;;;;18.66;66.11;101435.91;4970684;28;20030;-81
2022/06/01 08:30:08;;;;;;;13.73;10.57;;;;;;;18.64;63.92;101439.53;4971006;28;20035;-81
2022/06/01 08:32:34;;;;;;;13.85;11.15;;;;;;;18.64;65.39;101436.91;4970631;28;20438;-81
2022/06/01 08:35:01;;;;;;;15.07;10.68;;;;;;;18.46;61.53;101438.59;4969301;28;20126;-81
2022/06/01 08:37:26;;;;;;;13.43;10.38;;;;;;;18.04;65.43;101441.41;4969347;28;20015;-81
2022/06/01 08:39:52;;;;;;;17.20;11.20;;;;;;;18.05;65.93;101441.34;4970832;28;20089;-81
2022/06/01 08:42:20;;;;;;;15.45;11.82;;;;;;;18.64;64.83;101436.91;4970225;28;20031;-81
2022/06/01 08:44:49;;;;;;;15.55;11.93;;;;;;;18.82;67.99;101429.00;4977179;28;20034;-81
2022/06/01 08:47:27;;;;;;;14.88;11.35;;;;;;;19.09;68.24;101431.19;4975986;28;20061;-81
2022/06/01 08:49:56;;;;;;;13.45;10.38;;;;;;;18.98;62.82;101429.09;4970797;28;20049;-80
2022/06/01 08:52:24;;;;;;;12.60;10.40;;;;;;;18.78;62.01;101435.31;4970103;28;20501;-81
2022/06/01 08:54:50;;;;;;;16.25;10.77;;;;;;;18.33;61.13;101438.31;4970629;28;20042;-81
2022/06/01 08:57:43;;;;;;;12.93;9.93;;;;;;;17.94;63.63;101435.75;4970109;28;20097;-81
2022/06/01 09:00:12;;;;;;;13.90;10.20;;;;;;;17.48;66.33;101442.09;4969679;28;20050;-80
2022/06/01 09:03:08;;;;;;;14.45;10.25;;;;;;;17.26;65.08;101443.94;4970442;28;20116;-81
2022/06/01 09:05:39;;;;;;;14.18;10.30;;;;;;;16.93;64.60;101451.38;4968566;28;20280;-81
2022/06/01 09:08:27;;;;;;;13.57;10.43;;;;;;;16.73;65.00;101446.09;4977037;28;20089;-81
2022/06/01 09:11:08;;;;;;;14.07;10.82;;;;;;;16.57;69.53;101446.69;4972064;28;20450;-81
2022/06/01 09:13:56;;;;;;;14.98;10.50;;;;;;;16.46;70.45;101441.00;4970224;28;20493;-81
2022/06/01 09:16:43;;;;;;;14.25;9.98;;;;;;;16.34;69.70;101441.47;4973766;28;20019;-81
2022/06/01 09:19:16;;;;;;;12.60;9.07;;;;;;;16.03;67.90;101433.94;4973904;28;20027;-81
2022/06/01 09:24:32;;;;;;;;;;;;;;;15.83;67.45;101452.06;4962781;28;20096;-80
2022/06/01 09:27:00;;;;;;;13.57;8.60;;;;;;;15.48;67.14;101458.53;4972562;28;19925;-80
2022/06/01 09:29:28;;;;;;;10.50;8.35;;;;;;;15.30;68.91;101453.91;4973886;28;20030;-80
2022/06/01 09:32:00;;;;;;;14.25;9.48;;;;;;;15.11;69.77;101455.41;4986565;28;20035;-80
2022/06/01 09:34:35;;;;;;;12.52;9.75;;;;;;;14.92;71.45;101470.81;4973699;28;20038;-80
2022/06/01 09:37:00;;;;;;;;;;;;;;;14.87;71.16;101478.81;4974403;28;20022;-80
2022/06/01 09:39:25;;;;;;;17.20;11.07;;;;;;;14.51;75.15;101482.53;4974159;28;19910;-80
2022/06/01 09:41:51;;;;;;;11.80;7.60;;;;;;;14.17;74.46;101504.34;4961348;28;20034;-77
2022/06/01 09:44:31;;;;;;;9.38;6.28;;;;;;;13.83;76.16;101506.13;4973901;28;20038;-77
2022/06/01 09:47:00;;;;;;;10.80;6.55;;;;;;;13.44;79.20;101487.19;4973919;28;20072;-78
2022/06/01 09:49:29;;;;;;;11.05;5.72;;;;;;;13.25;79.70;101485.91;4973593;28;20031;-78
2022/06/01 09:52:10;;;;;;;10.48;5.65;;;;;;;13.16;81.55;101476.59;4972141;28;20018;-77
2022/06/01 09:54:42;;;;;;;8.10;5.13;;;;;;;13.17;80.53;101499.13;4972773;28;20053;-77
2022/06/01 09:57:27;;;;;;;7.80;5.55;;;;;;;13.29;83.47;101492.78;4988210;28;20018;-77
2022/06/01 10:06:15;;;;;;;8.55;5.70;;;;;;;14.18;79.80;101485.19;4971164;28;20071;-78
2022/06/01 10:08:44;;;;;;;7.82;6.13;;;;;;;14.35;83.53;101483.81;4970684;28;20035;-78
2022/06/01 10:11:31;;;;;;;8.77;5.97;;;;;;;14.44;82.06;101492.28;4972571;28;20042;-78
2022/06/01 10:14:11;;;;;;;7.43;5.72;;;;;;;14.42;82.35;101494.06;4973000;28;20031;-78
2022/06/01 10:16:47;;;;;;;7.47;5.28;;;;;;;14.37;80.02;101502.91;4971774;28;20393;-78
2022/06/01 10:19:16;;;;;;;7.55;5.35;;;;;;;14.21;79.48;101505.09;4973186;28;20030;-79
2022/06/01 10:22:04;;;;;;;6.57;5.10;;;;;;;14.04;79.92;101516.00;4984272;28;20397;-78
2022/06/01 10:24:34;;;;;;;8.98;6.00;;;;;;;13.75;78.63;101519.38;4982966;28;20056;-77
2022/06/01 10:26:59;;;;;;;9.82;6.25;;;;;;;13.48;80.70;101532.22;4973337;28;20739;-78
2022/06/01 10:29:34;;;;;;;12.00;8.60;;;;;;;13.23;80.57;101545.00;4973544;28;20030;-77
2022/06/01 10:32:10;;;;;;;14.98;9.40;;;;;;;12.97;83.21;101540.31;4973523;28;20058;-77
2022/06/01 10:34:58;;;;;;;14.85;9.05;;;;;;;12.83;83.64;101539.81;4971809;28;20106;-77
2022/06/01 10:37:36;;;;;;;15.15;9.43;;;;;;;12.81;84.97;101545.03;4972848;28;20629;-77
2022/06/01 10:40:11;;;;;;;13.63;9.75;;;;;;;12.87;86.96;101538.84;4980814;28;20377;-77
2022/06/01 10:45:35;;;;;;;12.70;8.90;;;;;;;13.14;85.21;101556.47;4972833;28;20516;-78
2022/06/01 10:48:17;;;;;;;14.95;9.75;;;;;;;13.21;84.45;101547.63;4980263;28;20034;-78
2022/06/01 10:51:15;;;;;;;15.52;10.25;;;;;;;13.26;86.57;101539.69;4972927;28;20109;-78
2022/06/01 10:53:48;;;;;;;16.08;10.38;;;;;;;13.27;86.35;101533.59;4969630;28;20061;-78
2022/06/01 10:56:17;;;;;;;16.58;10.98;;;;;;;13.30;84.52;101529.19;4972604;28;20029;-78
2022/06/01 10:58:43;;;;;;;16.33;11.85;;;;;;;13.40;84.96;101525.47;4971105;28;20023;-78
2022/06/01 11:01:15;;;;;;;16.48;12.02;;;;;;;13.55;85.98;101526.84;4972846;28;20546;-78
2022/06/01 11:03:56;;;;;;;17.77;11.73;;;;;;;13.74;87.39;101517.66;4982200;28;20027;-78
2022/06/01 11:06:25;;;;;;;16.45;11.30;;;;;;;14.02;85.00;101516.91;4972043;28;20039;-78
2022/06/01 11:09:02;;;;;;;14.40;10.73;;;;;;;14.29;84.63;101517.91;4979784;28;20031;-78
2022/06/01 11:11:46;;;;;;;16.05;11.45;;;;;;;14.53;85.43;101514.66;4986645;28;20066;-79
2022/06/01 11:14:43;;;;;;;13.25;10.07;;;;;;;14.83;83.50;101512.88;4971993;28;20041;-79
2022/06/01 11:17:21;;;;;;;11.35;8.85;;;;;;;15.11;81.81;101516.31;4970852;28;20038;-79
2022/06/01 11:20:02;;;;;;;12.18;8.60;;;;;;;15.28;84.06;101515.81;4972383;28;20497;-79
2022/06/01 11:22:46;;;;;;;12.93;8.23;;;;;;;15.51;79.75;101512.41;4972007;28;20044;-79
2022/06/01 11:25:32;;;;;;;10.07;7.60;;;;;;;15.63;79.10;101504.19;4972153;28;20085;-79
2022/06/01 11:28:27;;;;;;;9.48;8.07;;;;;;;15.79;78.50;101518.44;4971922;28;20048;-79
2022/06/01 11:31:14;;;;;;;11.85;8.93;;;;;;;15.92;80.00;101513.66;4972661;28;20066;-79
2022/06/01 11:33:44;;;;;;;13.93;9.88;;;;;;;16.04;76.00;101511.44;4962171;28;20034;-79
2022/06/01 11:36:21;;;;;;;14.80;10.80;;;;;;;16.13;80.01;101516.38;4971863;28;20113;-79
2022/06/01 11:39:35;;;;;;;15.48;10.48;;;;;;;16.29;75.59;101515.81;4970855;28;20027;-79
2022/06/01 11:42:27;;;;;;;14.95;10.23;;;;;;;16.52;75.60;101519.28;4940329;28;20042;-79
2022/06/01 11:45:06;;;;;;;16.08;10.18;;;;;;;16.85;77.66;101511.09;4971760;28;20055;-79
2022/06/01 11:48:00;;;;;;;15.15;9.95;;;;;;;17.13;72.52;101509.06;4973039;28;20035;-80
2022/06/01 11:50:51;;;;;;;13.43;9.17;;;;;;;17.24;69.79;101516.50;4971201;28;20061;-80
2022/06/01 11:53:27;;;;;;;13.30;9.32;;;;;;;17.25;72.55;101508.59;4971419;28;20038;-79
2022/06/01 11:56:08;;;;;;;12.20;9.05;;;;;;;17.41;73.86;101515.81;4970224;28;20043;-80